KRNTKCLM

Guest
Details From KRNT - Renton Muni
To KCLM - William R Fairchild Intl
Flight Number -
Tags Generated
Created
Modified
Stats Distance 64 nm / 119 km
Max Altitude 0 ft / 0 m
Waypoints 2
Social Downloads 2
Likes 0
Share VATSIM

Download

Looking for another format? Having issues loading an existing format? Contact us
Advertisement - Login to hide

Notes

Generated

Route

KRNT KCLM

ID Type Via Altitude Latitude Longitude Leg Dist Tot Dist Heading (true) Name
O KRNT APT - 0 ft / 0 m 47.50047˚ -122.21685˚ - 0 nm - -
O KCLM APT - 0 ft / 0 m 48.12657˚ -123.50476˚ 64 nm 64 nm 306° / 305° -

Altitude Profile

Advertisement - Login to hide

KRNT

Details ICAO KRNT (RNT)
Name Renton Muni
Region United States
Timezone America/Los_Angeles (UTC-7.0)
Stats Elevation 32 ft / 10 m (AMSL)
Location 47.493133° -122.215743°
Runways 1
Magnetic Variation 15.615° E

METAR

KRNT 250853Z AUTO 34005KT 3/4SM HZ CLR 14/10 A3003 RMK AO2 SLP173 T01390100 51002

Decode

TAF

Not found

Departure Runways

ID Width Length Bearing (true) Bearing (mag) Surface Threshold Offset Overrun Length
16 200 ft / 61 m 5,384 ft / 1,641 m 174.16° 158.55° Asphalt 299 ft / 91 m 0 ft / 0 m
34 200 ft / 61 m 5,384 ft / 1,641 m 354.17° 338.56° Asphalt 341 ft / 104 m 210 ft / 64 m

KCLM

Details ICAO KCLM (CLM)
Name WILLIAM R FAIRCHILD INTL
Region United States
Timezone America/Los_Angeles (UTC-7.0)
Stats Elevation 291 ft / 89 m (AMSL)
Location 48.120829° -123.500070°
Runways 2
Magnetic Variation 15.987° E

METAR

KCLM 250853Z AUTO 28010KT 10SM FEW060 10/06 A3005 RMK AO2 SLP176 T01000061 58006 $

Decode

TAF

KCLM 250525Z 2506/2606 29013KT P6SM FEW060 SCT250 FM251400 29008KT P6SM SCT008 SCT020 FM251900 31013G20KT P6SM FEW035 FM260200 29019G25KT P6SM SCT035

Decode

Destination Runways

ID Width Length Bearing (true) Bearing (mag) Surface Threshold Offset Overrun Length
08 151 ft / 46 m 6,353 ft / 1,936 m 104.61° 88.62° Asphalt 0 ft / 0 m 0 ft / 0 m
13 49 ft / 15 m 3,244 ft / 989 m 147.64° 131.65° Asphalt 0 ft / 0 m 0 ft / 0 m
26 151 ft / 46 m 6,353 ft / 1,936 m 284.63° 268.64° Asphalt 1,355 ft / 413 m 0 ft / 0 m
31 49 ft / 15 m 3,244 ft / 989 m 327.64° 311.65° Asphalt 0 ft / 0 m 0 ft / 0 m

Approach Navaids

Runway Type Ident Frequency Range Bearing (true) Bearing (mag) Slope Elevation
08 Localiser ICLM 108.90 MHz 18 nm / 33 km 104.64° 88.65° - 291 ft / 89 m (AMSL)
08 Glidescope ICLM 108.90 MHz 10 nm / 19 km 104.62° 88.64° 3.00° 281 ft / 86 m (AMSL)